sensor_id;sensor_type;location;lat;lon;timestamp;pressure;altitude;pressure_sealevel;temperature;humidity
75972;BME280;64651;47.540;19.088;2023-11-21T00:04:57;100002.59;;;7.79;82.47
75972;BME280;64651;47.540;19.088;2023-11-21T00:09:59;99988.84;;;7.63;83.05
75972;BME280;64651;47.540;19.088;2023-11-21T00:15:02;99995.91;;;7.39;83.54
75972;BME280;64651;47.540;19.088;2023-11-21T00:20:07;100001.31;;;7.19;83.92
75972;BME280;64651;47.540;19.088;2023-11-21T00:25:09;100002.13;;;7.19;84.43
75972;BME280;64651;47.540;19.088;2023-11-21T00:30:12;99999.94;;;7.26;84.56
75972;BME280;64651;47.540;19.088;2023-11-21T00:35:15;100000.16;;;7.10;84.95
75972;BME280;64651;47.540;19.088;2023-11-21T00:40:17;100007.75;;;6.98;85.51
75972;BME280;64651;47.540;19.088;2023-11-21T00:45:23;100021.38;;;6.82;86.31
75972;BME280;64651;47.540;19.088;2023-11-21T00:50:25;100039.34;;;6.73;86.84
75972;BME280;64651;47.540;19.088;2023-11-21T00:55:27;100019.87;;;6.65;87.20
75972;BME280;64651;47.540;19.088;2023-11-21T01:00:32;100021.28;;;6.72;87.18
75972;BME280;64651;47.540;19.088;2023-11-21T01:05:35;100019.13;;;6.74;87.01
75972;BME280;64651;47.540;19.088;2023-11-21T01:10:37;100029.22;;;6.74;86.96
75972;BME280;64651;47.540;19.088;2023-11-21T01:15:39;100014.09;;;7.08;86.82
75972;BME280;64651;47.540;19.088;2023-11-21T01:20:41;100003.00;;;7.35;86.01
75972;BME280;64651;47.540;19.088;2023-11-21T01:25:44;100004.16;;;7.49;85.08
75972;BME280;64651;47.540;19.088;2023-11-21T01:30:46;100004.41;;;7.43;84.70
75972;BME280;64651;47.540;19.088;2023-11-21T01:35:48;99998.63;;;7.39;84.69
75972;BME280;64651;47.540;19.088;2023-11-21T01:40:50;99994.78;;;7.25;84.80
75972;BME280;64651;47.540;19.088;2023-11-21T01:45:55;99989.25;;;7.20;85.27
75972;BME280;64651;47.540;19.088;2023-11-21T01:50:58;99981.78;;;6.95;86.08
75972;BME280;64651;47.540;19.088;2023-11-21T01:56:01;99991.91;;;6.95;86.01
75972;BME280;64651;47.540;19.088;2023-11-21T02:01:03;99983.63;;;6.84;86.31
75972;BME280;64651;47.540;19.088;2023-11-21T02:06:05;99971.59;;;6.85;86.45
75972;BME280;64651;47.540;19.088;2023-11-21T02:11:08;99966.09;;;6.80;86.72
75972;BME280;64651;47.540;19.088;2023-11-21T02:16:11;99969.31;;;6.67;86.74
75972;BME280;64651;47.540;19.088;2023-11-21T02:21:15;99963.87;;;6.77;86.58
75972;BME280;64651;47.540;19.088;2023-11-21T02:26:17;99961.41;;;6.71;86.88
75972;BME280;64651;47.540;19.088;2023-11-21T02:31:19;99956.25;;;6.79;86.34
75972;BME280;64651;47.540;19.088;2023-11-21T02:36:21;99957.41;;;6.88;86.48
75972;BME280;64651;47.540;19.088;2023-11-21T02:41:23;99956.28;;;6.84;86.32
75972;BME280;64651;47.540;19.088;2023-11-21T02:46:26;99949.72;;;6.80;86.31
75972;BME280;64651;47.540;19.088;2023-11-21T02:51:29;99954.44;;;6.95;86.30
75972;BME280;64651;47.540;19.088;2023-11-21T02:56:31;99963.75;;;6.99;86.13
75972;BME280;64651;47.540;19.088;2023-11-21T03:01:33;99953.06;;;6.98;86.03
75972;BME280;64651;47.540;19.088;2023-11-21T03:06:36;99960.16;;;6.93;86.11
75972;BME280;64651;47.540;19.088;2023-11-21T03:11:38;99944.00;;;6.92;86.25
75972;BME280;64651;47.540;19.088;2023-11-21T03:16:40;99935.88;;;7.07;85.72
75972;BME280;64651;47.540;19.088;2023-11-21T03:21:43;99921.09;;;7.03;85.72
75972;BME280;64651;47.540;19.088;2023-11-21T03:26:46;99917.00;;;7.01;85.81
75972;BME280;64651;47.540;19.088;2023-11-21T03:31:48;99908.22;;;6.99;85.43
75972;BME280;64651;47.540;19.088;2023-11-21T03:36:51;99911.19;;;6.92;85.32
75972;BME280;64651;47.540;19.088;2023-11-21T03:41:53;99897.75;;;6.80;85.73
75972;BME280;64651;47.540;19.088;2023-11-21T03:46:55;99904.03;;;6.81;85.95
75972;BME280;64651;47.540;19.088;2023-11-21T03:51:57;99895.59;;;6.82;86.59
75972;BME280;64651;47.540;19.088;2023-11-21T03:57:00;99892.03;;;6.87;85.71
75972;BME280;64651;47.540;19.088;2023-11-21T04:02:03;99895.84;;;6.76;85.36
75972;BME280;64651;47.540;19.088;2023-11-21T04:07:05;99899.63;;;6.65;85.40
75972;BME280;64651;47.540;19.088;2023-11-21T04:12:08;99917.59;;;6.61;85.61
75972;BME280;64651;47.540;19.088;2023-11-21T04:17:13;99907.53;;;6.66;85.64
75972;BME280;64651;47.540;19.088;2023-11-21T04:22:15;99923.91;;;6.61;85.81
75972;BME280;64651;47.540;19.088;2023-11-21T04:27:17;99938.66;;;6.60;86.14
75972;BME280;64651;47.540;19.088;2023-11-21T04:32:20;99956.81;;;6.81;85.88
75972;BME280;64651;47.540;19.088;2023-11-21T04:37:22;99950.03;;;6.89;85.44
75972;BME280;64651;47.540;19.088;2023-11-21T04:42:24;99928.44;;;6.92;85.45
75972;BME280;64651;47.540;19.088;2023-11-21T04:47:27;99931.25;;;7.18;84.60
75972;BME280;64651;47.540;19.088;2023-11-21T04:52:29;99932.63;;;7.20;84.34
75972;BME280;64651;47.540;19.088;2023-11-21T04:57:31;99947.69;;;7.18;84.41
75972;BME280;64651;47.540;19.088;2023-11-21T05:02:33;99955.31;;;7.11;84.44
75972;BME280;64651;47.540;19.088;2023-11-21T05:07:40;99963.50;;;7.06;84.31
75972;BME280;64651;47.540;19.088;2023-11-21T05:12:43;99967.91;;;7.12;84.41
75972;BME280;64651;47.540;19.088;2023-11-21T05:17:45;99972.59;;;7.26;83.86
75972;BME280;64651;47.540;19.088;2023-11-21T05:22:51;99973.47;;;7.37;83.67
75972;BME280;64651;47.540;19.088;2023-11-21T05:27:53;99971.84;;;7.41;83.69
75972;BME280;64651;47.540;19.088;2023-11-21T05:32:56;99957.06;;;7.57;83.21
75972;BME280;64651;47.540;19.088;2023-11-21T05:37:59;99947.78;;;7.58;83.18
75972;BME280;64651;47.540;19.088;2023-11-21T05:43:01;99943.97;;;7.69;82.82
75972;BME280;64651;47.540;19.088;2023-11-21T05:48:04;99962.59;;;7.67;83.04
75972;BME280;64651;47.540;19.088;2023-11-21T05:53:06;99960.66;;;7.63;82.67
75972;BME280;64651;47.540;19.088;2023-11-21T05:58:09;99958.19;;;7.61;82.91
75972;BME280;64651;47.540;19.088;2023-11-21T06:03:11;99960.94;;;7.77;82.38
75972;BME280;64651;47.540;19.088;2023-11-21T06:08:14;99964.81;;;7.91;81.92
75972;BME280;64651;47.540;19.088;2023-11-21T06:13:18;99979.63;;;8.05;81.71
75972;BME280;64651;47.540;19.088;2023-11-21T06:18:26;100004.81;;;8.07;81.57
75972;BME280;64651;47.540;19.088;2023-11-21T06:23:28;100014.41;;;8.25;80.81
75972;BME280;64651;47.540;19.088;2023-11-21T06:28:30;100010.03;;;8.29;80.98
75972;BME280;64651;47.540;19.088;2023-11-21T06:33:33;100013.59;;;8.29;81.37
75972;BME280;64651;47.540;19.088;2023-11-21T06:38:35;100041.81;;;8.30;80.97
75972;BME280;64651;47.540;19.088;2023-11-21T06:43:37;100042.09;;;8.28;80.99
75972;BME280;64651;47.540;19.088;2023-11-21T06:48:42;100049.53;;;8.33;80.71
75972;BME280;64651;47.540;19.088;2023-11-21T06:53:44;100052.78;;;8.30;80.40
75972;BME280;64651;47.540;19.088;2023-11-21T06:58:47;100054.19;;;8.37;80.14
75972;BME280;64651;47.540;19.088;2023-11-21T07:03:49;100063.25;;;8.33;80.39
75972;BME280;64651;47.540;19.088;2023-11-21T07:08:52;100056.09;;;8.32;80.25
75972;BME280;64651;47.540;19.088;2023-11-21T07:13:54;100061.31;;;8.38;80.05
75972;BME280;64651;47.540;19.088;2023-11-21T07:18:57;100065.44;;;8.46;79.82
75972;BME280;64651;47.540;19.088;2023-11-21T07:24:03;100072.81;;;8.61;79.65
75972;BME280;64651;47.540;19.088;2023-11-21T07:29:06;100081.34;;;8.74;78.86
75972;BME280;64651;47.540;19.088;2023-11-21T07:34:08;100086.53;;;8.91;78.57
75972;BME280;64651;47.540;19.088;2023-11-21T07:39:10;100079.38;;;9.00;77.80
75972;BME280;64651;47.540;19.088;2023-11-21T07:44:12;100069.75;;;9.13;77.89
75972;BME280;64651;47.540;19.088;2023-11-21T07:49:15;100077.97;;;9.23;77.25
75972;BME280;64651;47.540;19.088;2023-11-21T07:54:22;100087.56;;;9.25;77.71
75972;BME280;64651;47.540;19.088;2023-11-21T07:59:24;100082.88;;;9.36;77.56
75972;BME280;64651;47.540;19.088;2023-11-21T08:04:26;100086.12;;;9.48;76.94
75972;BME280;64651;47.540;19.088;2023-11-21T08:09:29;100079.22;;;9.56;76.58
75972;BME280;64651;47.540;19.088;2023-11-21T08:14:33;100084.69;;;9.66;76.46
75972;BME280;64651;47.540;19.088;2023-11-21T08:19:35;100080.84;;;9.67;76.37
75972;BME280;64651;47.540;19.088;2023-11-21T08:24:38;100075.56;;;9.81;76.05
75972;BME280;64651;47.540;19.088;2023-11-21T08:29:40;100063.63;;;9.95;75.02
75972;BME280;64651;47.540;19.088;2023-11-21T08:34:42;100055.88;;;10.07;75.17
75972;BME280;64651;47.540;19.088;2023-11-21T08:39:47;100066.56;;;10.14;75.39
75972;BME280;64651;47.540;19.088;2023-11-21T08:44:50;100055.78;;;10.28;73.61
75972;BME280;64651;47.540;19.088;2023-11-21T08:49:55;100052.97;;;10.33;72.67
75972;BME280;64651;47.540;19.088;2023-11-21T08:54:57;100040.28;;;10.42;72.55
75972;BME280;64651;47.540;19.088;2023-11-21T09:00:05;100046.09;;;10.69;71.89
75972;BME280;64651;47.540;19.088;2023-11-21T09:05:15;100047.06;;;10.83;71.28
75972;BME280;64651;47.540;19.088;2023-11-21T09:10:18;100062.47;;;10.84;70.59
75972;BME280;64651;47.540;19.088;2023-11-21T09:15:21;100059.72;;;10.84;69.89
75972;BME280;64651;47.540;19.088;2023-11-21T09:20:23;100056.66;;;10.86;68.93
75972;BME280;64651;47.540;19.088;2023-11-21T09:25:25;100044.69;;;10.72;68.95
75972;BME280;64651;47.540;19.088;2023-11-21T09:30:28;100044.03;;;10.85;68.80
75972;BME280;64651;47.540;19.088;2023-11-21T09:35:30;100034.56;;;10.96;67.98
75972;BME280;64651;47.540;19.088;2023-11-21T09:40:32;100028.88;;;11.11;67.49
75972;BME280;64651;47.540;19.088;2023-11-21T09:45:35;100030.09;;;11.24;67.46
75972;BME280;64651;47.540;19.088;2023-11-21T09:50:40;100013.06;;;11.22;66.57
75972;BME280;64651;47.540;19.088;2023-11-21T09:55:44;100006.91;;;11.06;66.92
75972;BME280;64651;47.540;19.088;2023-11-21T10:00:48;100017.44;;;11.23;67.10
75972;BME280;64651;47.540;19.088;2023-11-21T10:05:53;100010.25;;;11.27;66.82
75972;BME280;64651;47.540;19.088;2023-11-21T10:10:56;100013.69;;;11.37;66.93
75972;BME280;64651;47.540;19.088;2023-11-21T10:15:58;100015.81;;;11.46;66.60
75972;BME280;64651;47.540;19.088;2023-11-21T10:21:01;100004.44;;;11.52;67.02
75972;BME280;64651;47.540;19.088;2023-11-21T10:26:06;100002.19;;;11.54;67.22
75972;BME280;64651;47.540;19.088;2023-11-21T10:31:21;99987.00;;;11.57;67.06
75972;BME280;64651;47.540;19.088;2023-11-21T10:36:28;99985.34;;;11.37;65.61
75972;BME280;64651;47.540;19.088;2023-11-21T10:41:30;99993.03;;;11.59;64.98
75972;BME280;64651;47.540;19.088;2023-11-21T10:46:33;99984.19;;;11.62;64.84
75972;BME280;64651;47.540;19.088;2023-11-21T10:51:36;99983.78;;;11.73;64.19
75972;BME280;64651;47.540;19.088;2023-11-21T10:56:39;99988.34;;;11.83;63.49
75972;BME280;64651;47.540;19.088;2023-11-21T11:01:45;99986.69;;;12.33;62.52
75972;BME280;64651;47.540;19.088;2023-11-21T11:06:54;99980.13;;;12.48;61.72
75972;BME280;64651;47.540;19.088;2023-11-21T11:11:56;99985.81;;;12.84;61.78
75972;BME280;64651;47.540;19.088;2023-11-21T11:16:59;99973.72;;;12.66;62.05
75972;BME280;64651;47.540;19.088;2023-11-21T11:27:23;99966.84;;;12.17;62.22
75972;BME280;64651;47.540;19.088;2023-11-21T11:32:43;99972.38;;;11.99;64.44
75972;BME280;64651;47.540;19.088;2023-11-21T11:37:51;99968.88;;;11.74;65.38
75972;BME280;64651;47.540;19.088;2023-11-21T11:43:01;99956.72;;;11.94;65.19
75972;BME280;64651;47.540;19.088;2023-11-21T11:48:07;99962.91;;;12.05;64.89
75972;BME280;64651;47.540;19.088;2023-11-21T11:53:14;99948.47;;;12.27;63.90
75972;BME280;64651;47.540;19.088;2023-11-21T11:58:17;99953.03;;;12.17;64.29
75972;BME280;64651;47.540;19.088;2023-11-21T12:03:19;99939.34;;;12.12;64.67
75972;BME280;64651;47.540;19.088;2023-11-21T12:08:22;99942.41;;;12.57;63.40
75972;BME280;64651;47.540;19.088;2023-11-21T12:13:28;99942.47;;;12.38;63.23
75972;BME280;64651;47.540;19.088;2023-11-21T12:18:30;99950.06;;;12.46;63.61
75972;BME280;64651;47.540;19.088;2023-11-21T12:23:32;99934.81;;;12.35;63.63
75972;BME280;64651;47.540;19.088;2023-11-21T12:28:36;99941.47;;;12.48;63.41
75972;BME280;64651;47.540;19.088;2023-11-21T12:33:39;99937.81;;;12.52;62.91
75972;BME280;64651;47.540;19.088;2023-11-21T12:38:41;99927.28;;;12.54;62.90
75972;BME280;64651;47.540;19.088;2023-11-21T12:43:44;99927.81;;;12.70;62.74
75972;BME280;64651;47.540;19.088;2023-11-21T12:48:46;99917.28;;;12.58;62.56
75972;BME280;64651;47.540;19.088;2023-11-21T12:53:49;99935.06;;;12.66;62.27
75972;BME280;64651;47.540;19.088;2023-11-21T12:58:53;99928.09;;;12.69;62.80
75972;BME280;64651;47.540;19.088;2023-11-21T13:03:57;99922.22;;;12.29;63.77
75972;BME280;64651;47.540;19.088;2023-11-21T13:09:04;99929.09;;;12.45;63.28
75972;BME280;64651;47.540;19.088;2023-11-21T13:14:07;99930.97;;;12.50;63.24
75972;BME280;64651;47.540;19.088;2023-11-21T13:19:09;99930.97;;;12.50;63.99
75972;BME280;64651;47.540;19.088;2023-11-21T13:24:11;99935.44;;;12.46;64.26
75972;BME280;64651;47.540;19.088;2023-11-21T13:29:13;99929.16;;;12.27;64.07
75972;BME280;64651;47.540;19.088;2023-11-21T13:34:16;99931.66;;;12.09;64.57
75972;BME280;64651;47.540;19.088;2023-11-21T13:39:25;99934.78;;;12.03;65.03
75972;BME280;64651;47.540;19.088;2023-11-21T13:44:31;99939.94;;;11.91;64.36
75972;BME280;64651;47.540;19.088;2023-11-21T13:49:40;99938.00;;;11.72;65.27
75972;BME280;64651;47.540;19.088;2023-11-21T13:54:44;99940.31;;;11.65;64.70
75972;BME280;64651;47.540;19.088;2023-11-21T13:59:46;99936.66;;;11.51;65.21
75972;BME280;64651;47.540;19.088;2023-11-21T14:04:48;99951.62;;;11.45;65.39
75972;BME280;64651;47.540;19.088;2023-11-21T14:09:58;99951.47;;;11.36;65.89
75972;BME280;64651;47.540;19.088;2023-11-21T14:15:00;99956.41;;;11.16;66.94
75972;BME280;64651;47.540;19.088;2023-11-21T14:20:06;99960.38;;;11.05;67.23
75972;BME280;64651;47.540;19.088;2023-11-21T14:25:09;99968.97;;;11.03;67.22
75972;BME280;64651;47.540;19.088;2023-11-21T14:30:13;99962.16;;;10.72;67.88
75972;BME280;64651;47.540;19.088;2023-11-21T14:35:20;99979.09;;;10.55;68.46
75972;BME280;64651;47.540;19.088;2023-11-21T14:40:24;99975.91;;;10.43;68.84
75972;BME280;64651;47.540;19.088;2023-11-21T14:45:27;99973.84;;;10.30;69.44
75972;BME280;64651;47.540;19.088;2023-11-21T14:50:34;99970.97;;;10.06;70.53
75972;BME280;64651;47.540;19.088;2023-11-21T14:55:55;99984.34;;;9.78;71.78
75972;BME280;64651;47.540;19.088;2023-11-21T15:01:01;99983.16;;;9.51;72.85
75972;BME280;64651;47.540;19.088;2023-11-21T15:06:05;99986.72;;;9.46;73.42
75972;BME280;64651;47.540;19.088;2023-11-21T15:11:26;99990.94;;;9.23;74.59
75972;BME280;64651;47.540;19.088;2023-11-21T15:16:33;99992.34;;;9.21;75.09
75972;BME280;64651;47.540;19.088;2023-11-21T15:21:40;99983.56;;;9.19;76.92
75972;BME280;64651;47.540;19.088;2023-11-21T15:26:42;99992.13;;;9.02;76.67
75972;BME280;64651;47.540;19.088;2023-11-21T15:31:44;99993.78;;;8.98;77.07
75972;BME280;64651;47.540;19.088;2023-11-21T15:36:50;100005.91;;;8.77;77.65
75972;BME280;64651;47.540;19.088;2023-11-21T15:41:59;99987.84;;;8.55;78.89
75972;BME280;64651;47.540;19.088;2023-11-21T15:47:01;99987.88;;;8.40;79.92
75972;BME280;64651;47.540;19.088;2023-11-21T15:52:06;100000.47;;;8.41;80.86
75972;BME280;64651;47.540;19.088;2023-11-21T15:57:13;99997.19;;;8.34;81.87
75972;BME280;64651;47.540;19.088;2023-11-21T16:02:15;99982.91;;;8.42;82.39
75972;BME280;64651;47.540;19.088;2023-11-21T16:07:18;99993.34;;;8.30;82.27
75972;BME280;64651;47.540;19.088;2023-11-21T16:12:20;99988.69;;;8.31;81.91
75972;BME280;64651;47.540;19.088;2023-11-21T16:17:24;99990.31;;;8.32;81.53
75972;BME280;64651;47.540;19.088;2023-11-21T16:22:26;99996.06;;;8.15;81.63
75972;BME280;64651;47.540;19.088;2023-11-21T16:27:30;99997.16;;;8.09;81.54
75972;BME280;64651;47.540;19.088;2023-11-21T16:32:32;99999.34;;;8.07;81.36
75972;BME280;64651;47.540;19.088;2023-11-21T16:37:37;99995.75;;;8.01;81.84
75972;BME280;64651;47.540;19.088;2023-11-21T16:42:39;99984.81;;;8.11;81.54
75972;BME280;64651;47.540;19.088;2023-11-21T16:47:44;99997.97;;;8.09;81.39
75972;BME280;64651;47.540;19.088;2023-11-21T16:52:47;100007.81;;;7.95;81.71
75972;BME280;64651;47.540;19.088;2023-11-21T16:57:49;100008.06;;;7.73;82.50
75972;BME280;64651;47.540;19.088;2023-11-21T17:02:53;100001.47;;;7.74;82.64
75972;BME280;64651;47.540;19.088;2023-11-21T17:07:56;99998.50;;;7.86;82.27
75972;BME280;64651;47.540;19.088;2023-11-21T17:12:59;100006.41;;;7.83;82.16
75972;BME280;64651;47.540;19.088;2023-11-21T17:18:03;100013.53;;;7.73;82.25
75972;BME280;64651;47.540;19.088;2023-11-21T17:23:08;100026.16;;;7.80;82.52
75972;BME280;64651;47.540;19.088;2023-11-21T17:28:12;100031.91;;;7.83;82.21
75972;BME280;64651;47.540;19.088;2023-11-21T17:33:14;100032.97;;;7.87;82.21
75972;BME280;64651;47.540;19.088;2023-11-21T17:38:17;100037.63;;;7.77;82.67
75972;BME280;64651;47.540;19.088;2023-11-21T17:43:19;100046.91;;;7.70;82.60
75972;BME280;64651;47.540;19.088;2023-11-21T17:48:21;100037.56;;;7.56;83.30
75972;BME280;64651;47.540;19.088;2023-11-21T17:53:24;100047.41;;;7.52;83.47
75972;BME280;64651;47.540;19.088;2023-11-21T17:58:26;100045.41;;;7.32;83.82
75972;BME280;64651;47.540;19.088;2023-11-21T18:03:29;100048.38;;;7.26;84.35
75972;BME280;64651;47.540;19.088;2023-11-21T18:08:32;100061.44;;;7.14;85.01
75972;BME280;64651;47.540;19.088;2023-11-21T18:13:34;100060.66;;;7.13;85.90
75972;BME280;64651;47.540;19.088;2023-11-21T18:18:36;100069.62;;;7.09;85.82
75972;BME280;64651;47.540;19.088;2023-11-21T18:23:44;100072.88;;;7.01;86.15
75972;BME280;64651;47.540;19.088;2023-11-21T18:28:47;100071.25;;;7.05;86.79
75972;BME280;64651;47.540;19.088;2023-11-21T18:33:49;100078.91;;;7.08;86.83
75972;BME280;64651;47.540;19.088;2023-11-21T18:38:51;100090.38;;;7.00;87.01
75972;BME280;64651;47.540;19.088;2023-11-21T18:43:53;100082.09;;;6.89;87.56
75972;BME280;64651;47.540;19.088;2023-11-21T18:48:56;100081.53;;;6.87;87.82
75972;BME280;64651;47.540;19.088;2023-11-21T18:54:00;100082.00;;;6.74;88.22
75972;BME280;64651;47.540;19.088;2023-11-21T18:59:02;100089.09;;;6.70;88.69
75972;BME280;64651;47.540;19.088;2023-11-21T19:04:07;100098.31;;;6.64;88.92
75972;BME280;64651;47.540;19.088;2023-11-21T19:09:09;100090.84;;;6.55;89.35
75972;BME280;64651;47.540;19.088;2023-11-21T19:14:14;100080.47;;;6.51;89.93
75972;BME280;64651;47.540;19.088;2023-11-21T19:19:16;100086.44;;;6.48;89.72
75972;BME280;64651;47.540;19.088;2023-11-21T19:24:19;100092.44;;;6.45;89.97
75972;BME280;64651;47.540;19.088;2023-11-21T19:29:21;100090.03;;;6.54;90.12
75972;BME280;64651;47.540;19.088;2023-11-21T19:34:24;100102.00;;;6.48;90.10
75972;BME280;64651;47.540;19.088;2023-11-21T19:39:27;100100.34;;;6.47;90.23
75972;BME280;64651;47.540;19.088;2023-11-21T19:44:29;100097.34;;;6.48;90.22
75972;BME280;64651;47.540;19.088;2023-11-21T19:49:33;100108.63;;;6.52;90.18
75972;BME280;64651;47.540;19.088;2023-11-21T19:54:36;100109.16;;;6.54;90.20
75972;BME280;64651;47.540;19.088;2023-11-21T19:59:39;100127.22;;;6.55;90.11
75972;BME280;64651;47.540;19.088;2023-11-21T20:04:46;100134.91;;;6.58;90.01
75972;BME280;64651;47.540;19.088;2023-11-21T20:09:48;100129.94;;;6.55;89.98
75972;BME280;64651;47.540;19.088;2023-11-21T20:14:52;100129.66;;;6.51;89.76
75972;BME280;64651;47.540;19.088;2023-11-21T20:19:54;100137.38;;;6.33;89.93
75972;BME280;64651;47.540;19.088;2023-11-21T20:24:56;100139.25;;;6.27;90.10
75972;BME280;64651;47.540;19.088;2023-11-21T20:29:58;100148.81;;;6.30;90.69
75972;BME280;64651;47.540;19.088;2023-11-21T20:35:03;100140.75;;;6.40;90.51
75972;BME280;64651;47.540;19.088;2023-11-21T20:40:07;100138.00;;;6.40;90.57
75972;BME280;64651;47.540;19.088;2023-11-21T20:45:10;100129.56;;;6.46;90.71
75972;BME280;64651;47.540;19.088;2023-11-21T20:50:12;100131.97;;;6.65;90.51
75972;BME280;64651;47.540;19.088;2023-11-21T20:55:15;100136.03;;;6.62;90.29
75972;BME280;64651;47.540;19.088;2023-11-21T21:00:18;100140.28;;;6.53;90.39
75972;BME280;64651;47.540;19.088;2023-11-21T21:05:21;100142.37;;;6.41;90.70
75972;BME280;64651;47.540;19.088;2023-11-21T21:10:24;100148.78;;;6.25;90.60
75972;BME280;64651;47.540;19.088;2023-11-21T21:15:30;100150.81;;;6.12;91.00
75972;BME280;64651;47.540;19.088;2023-11-21T21:20:32;100165.50;;;6.06;90.86
75972;BME280;64651;47.540;19.088;2023-11-21T21:25:34;100165.91;;;5.93;91.40
75972;BME280;64651;47.540;19.088;2023-11-21T21:30:37;100176.09;;;5.81;91.55
75972;BME280;64651;47.540;19.088;2023-11-21T21:35:41;100178.19;;;5.74;91.80
75972;BME280;64651;47.540;19.088;2023-11-21T21:40:43;100187.38;;;5.68;92.10
75972;BME280;64651;47.540;19.088;2023-11-21T21:45:45;100191.22;;;5.67;92.36
75972;BME280;64651;47.540;19.088;2023-11-21T21:50:48;100206.47;;;5.68;92.61
75972;BME280;64651;47.540;19.088;2023-11-21T21:55:53;100207.66;;;5.72;92.78
75972;BME280;64651;47.540;19.088;2023-11-21T22:00:55;100204.47;;;5.80;92.72
75972;BME280;64651;47.540;19.088;2023-11-21T22:05:59;100210.88;;;5.69;92.24
75972;BME280;64651;47.540;19.088;2023-11-21T22:11:03;100208.50;;;5.56;92.27
75972;BME280;64651;47.540;19.088;2023-11-21T22:16:07;100200.59;;;5.54;92.47
75972;BME280;64651;47.540;19.088;2023-11-21T22:21:14;100197.47;;;5.67;92.54
75972;BME280;64651;47.540;19.088;2023-11-21T22:26:20;100201.53;;;5.65;92.51
75972;BME280;64651;47.540;19.088;2023-11-21T22:31:22;100202.03;;;5.62;92.66
75972;BME280;64651;47.540;19.088;2023-11-21T22:36:24;100206.34;;;5.58;92.79
75972;BME280;64651;47.540;19.088;2023-11-21T22:41:28;100213.06;;;5.50;92.87
75972;BME280;64651;47.540;19.088;2023-11-21T22:46:30;100224.72;;;5.46;93.00
75972;BME280;64651;47.540;19.088;2023-11-21T22:51:35;100235.47;;;5.52;92.98
75972;BME280;64651;47.540;19.088;2023-11-21T22:56:37;100233.50;;;5.48;93.04
75972;BME280;64651;47.540;19.088;2023-11-21T23:01:40;100233.84;;;5.35;93.22
75972;BME280;64651;47.540;19.088;2023-11-21T23:06:42;100228.97;;;5.37;93.42
75972;BME280;64651;47.540;19.088;2023-11-21T23:11:47;100233.78;;;5.29;93.57
75972;BME280;64651;47.540;19.088;2023-11-21T23:16:50;100236.06;;;5.21;93.71
75972;BME280;64651;47.540;19.088;2023-11-21T23:21:54;100230.19;;;5.12;93.69
75972;BME280;64651;47.540;19.088;2023-11-21T23:26:56;100236.63;;;5.06;93.64
75972;BME280;64651;47.540;19.088;2023-11-21T23:31:58;100249.78;;;5.09;93.59
75972;BME280;64651;47.540;19.088;2023-11-21T23:37:01;100244.75;;;5.01;93.74
75972;BME280;64651;47.540;19.088;2023-11-21T23:42:05;100252.91;;;5.01;93.79
75972;BME280;64651;47.540;19.088;2023-11-21T23:47:07;100255.25;;;5.09;93.87
75972;BME280;64651;47.540;19.088;2023-11-21T23:52:09;100261.09;;;5.01;93.67
75972;BME280;64651;47.540;19.088;2023-11-21T23:57:11;100256.81;;;5.05;93.61
